PWSweather.com
Personal Weather Stations
Station Observations
WATERF01
WaterfordIE

WaterfordIE

Lat: 52.2412507, Lon: -7.1414691

Elevation: 65

Station Type: Davis Vantage Vue

www.waterfordweather.com

High Low Average
Temperature 52.2°F11.2°C 50.2°F10.1°C 51.5°F10.8°C
Dew Point 50.9°F10.5°C 49.1°F9.5°C 50.3°F10.2°C
Winds 15.0 mph 24.1 kmh 1.2 mph 1.9 kmh 8.0 mph WSW12.9 kmh WSW
Wind Gusts 27.6 mph44.4 kmh 4.6 mph7.4 kmh 15.0 mph24.1 kmh
Humidity 97% 94% 95%
Pressure 30.36 in1028.1 mb 29.81 in1009.5 mb -
Precipitation 0.01 in0.3 mm - -
Hour Temp Dew Point Humidity Winds Wind Gusts Pressure Precip Precip Rate Daily Precip Total
12:00 AM 50.2°F10.1°C 49.1°F9.5°C 96% 4.6 mph NW7.4 kmh NW 9.2 mph14.8 kmh 30.36 in1028.1 mb - 0.00 in0.0 mm 0.00 in0.0 mm
12:10 AM 50.2°F10.1°C 49.1°F9.5°C 96% 5.8 mph W9.3 kmh W 12.7 mph20.4 kmh 30.36 in1028.1 mb - 0.00 in0.0 mm 0.00 in0.0 mm
12:20 AM 50.4°F10.2°C 49.3°F9.6°C 96% 5.8 mph WNW9.3 kmh WNW 9.2 mph14.8 kmh 30.36 in1028.1 mb - 0.00 in0.0 mm 0.00 in0.0 mm
12:30 AM 50.6°F10.3°C 49.5°F9.7°C 96% 5.8 mph WSW9.3 kmh WSW 8.1 mph13.0 kmh 30.35 in1027.8 mb - 0.00 in0.0 mm 0.00 in0.0 mm
12:40 AM 50.8°F10.4°C 49.7°F9.8°C 96% 4.6 mph W7.4 kmh W 8.1 mph13.0 kmh 30.35 in1027.8 mb - 0.00 in0.0 mm 0.00 in0.0 mm
12:50 AM 51.0°F10.6°C 49.9°F9.9°C 96% 5.8 mph WSW9.3 kmh WSW 8.1 mph13.0 kmh 30.34 in1027.4 mb - 0.00 in0.0 mm 0.00 in0.0 mm
01:00 AM 51.3°F10.7°C 49.9°F9.9°C 95% 2.3 mph WSW3.7 kmh WSW 6.9 mph11.1 kmh 30.34 in1027.4 mb - 0.00 in0.0 mm 0.00 in0.0 mm
01:10 AM 51.2°F10.7°C 49.8°F9.9°C 95% 2.3 mph WNW3.7 kmh WNW 9.2 mph14.8 kmh 30.34 in1027.4 mb - 0.00 in0.0 mm 0.00 in0.0 mm
01:20 AM 51.2°F10.7°C 49.8°F9.9°C 95% 1.2 mph WSW1.9 kmh WSW 8.1 mph13.0 kmh 30.34 in1027.4 mb - 0.00 in0.0 mm 0.00 in0.0 mm
01:30 AM 51.2°F10.7°C 49.8°F9.9°C 95% 2.3 mph WSW3.7 kmh WSW 4.6 mph7.4 kmh 30.33 in1027.1 mb - 0.00 in0.0 mm 0.00 in0.0 mm
01:40 AM 51.3°F10.7°C 49.9°F9.9°C 95% 3.5 mph W5.6 kmh W 6.9 mph11.1 kmh 30.33 in1027.1 mb - 0.00 in0.0 mm 0.00 in0.0 mm
01:50 AM 51.3°F10.7°C 49.9°F9.9°C 95% 4.6 mph W7.4 kmh W 8.1 mph13.0 kmh 30.32 in1026.8 mb - 0.00 in0.0 mm 0.00 in0.0 mm
02:00 AM 51.3°F10.7°C 50.2°F10.1°C 96% 4.6 mph W7.4 kmh W 6.9 mph11.1 kmh 30.32 in1026.8 mb - 0.00 in0.0 mm 0.00 in0.0 mm
02:10 AM 51.3°F10.7°C 50.2°F10.1°C 96% 3.5 mph WSW5.6 kmh WSW 8.1 mph13.0 kmh 30.32 in1026.8 mb - 0.00 in0.0 mm 0.00 in0.0 mm
02:20 AM 51.3°F10.7°C 50.2°F10.1°C 96% 3.5 mph WSW5.6 kmh WSW 6.9 mph11.1 kmh 30.31 in1026.4 mb - 0.00 in0.0 mm 0.00 in0.0 mm
02:30 AM 51.4°F10.8°C 50.3°F10.2°C 96% 4.6 mph WNW7.4 kmh WNW 6.9 mph11.1 kmh 30.31 in1026.4 mb - 0.00 in0.0 mm 0.00 in0.0 mm
02:40 AM 51.4°F10.8°C 50.3°F10.2°C 96% 4.6 mph WSW7.4 kmh WSW 8.1 mph13.0 kmh 30.30 in1026.1 mb - 0.00 in0.0 mm 0.00 in0.0 mm
02:50 AM 51.4°F10.8°C 50.3°F10.2°C 96% 3.5 mph WSW5.6 kmh WSW 8.1 mph13.0 kmh 30.30 in1026.1 mb - 0.00 in0.0 mm 0.00 in0.0 mm
03:00 AM 51.4°F10.8°C 50.3°F10.2°C 96% 3.5 mph WSW5.6 kmh WSW 8.1 mph13.0 kmh 30.29 in1025.7 mb - 0.00 in0.0 mm 0.00 in0.0 mm
03:10 AM 51.3°F10.7°C 50.2°F10.1°C 96% 6.9 mph WSW11.1 kmh WSW 11.5 mph18.5 kmh 30.28 in1025.4 mb - 0.00 in0.0 mm 0.00 in0.0 mm
03:20 AM 51.3°F10.7°C 50.2°F10.1°C 96% 5.8 mph WSW9.3 kmh WSW 13.8 mph22.2 kmh 30.28 in1025.4 mb - 0.00 in0.0 mm 0.00 in0.0 mm
03:30 AM 51.3°F10.7°C 50.2°F10.1°C 96% 4.6 mph W7.4 kmh W 8.1 mph13.0 kmh 30.27 in1025.1 mb - 0.00 in0.0 mm 0.00 in0.0 mm
03:40 AM 51.4°F10.8°C 50.3°F10.2°C 96% 8.1 mph W13.0 kmh W 13.8 mph22.2 kmh 30.27 in1025.1 mb - 0.00 in0.0 mm 0.00 in0.0 mm
03:50 AM 51.4°F10.8°C 50.3°F10.2°C 96% 4.6 mph WSW7.4 kmh WSW 11.5 mph18.5 kmh 30.27 in1025.1 mb - 0.00 in0.0 mm 0.00 in0.0 mm
04:00 AM 51.4°F10.8°C 50.3°F10.2°C 96% 5.8 mph WSW9.3 kmh WSW 11.5 mph18.5 kmh 30.27 in1025.1 mb - 0.00 in0.0 mm 0.00 in0.0 mm
04:10 AM 51.3°F10.7°C 50.2°F10.1°C 96% 5.8 mph W9.3 kmh W 11.5 mph18.5 kmh 30.26 in1024.7 mb - 0.00 in0.0 mm 0.00 in0.0 mm
04:20 AM 51.4°F10.8°C 50.3°F10.2°C 96% 6.9 mph WSW11.1 kmh WSW 13.8 mph22.2 kmh 30.25 in1024.4 mb - 0.00 in0.0 mm 0.00 in0.0 mm
04:30 AM 51.4°F10.8°C 50.3°F10.2°C 96% 6.9 mph W11.1 kmh W 12.7 mph20.4 kmh 30.25 in1024.4 mb - 0.00 in0.0 mm 0.00 in0.0 mm
04:40 AM 51.4°F10.8°C 50.3°F10.2°C 96% 6.9 mph WSW11.1 kmh WSW 9.2 mph14.8 kmh 30.25 in1024.4 mb - 0.00 in0.0 mm 0.00 in0.0 mm
04:50 AM 51.4°F10.8°C 50.3°F10.2°C 96% 6.9 mph W11.1 kmh W 11.5 mph18.5 kmh 30.24 in1024.0 mb - 0.00 in0.0 mm 0.00 in0.0 mm
05:00 AM 51.5°F10.8°C 50.7°F10.4°C 97% 5.8 mph WSW9.3 kmh WSW 8.1 mph13.0 kmh 30.24 in1024.0 mb - 0.00 in0.0 mm 0.00 in0.0 mm
05:10 AM 51.4°F10.8°C 50.6°F10.3°C 97% 5.8 mph WSW9.3 kmh WSW 6.9 mph11.1 kmh 30.23 in1023.7 mb - 0.00 in0.0 mm 0.00 in0.0 mm
05:20 AM 51.4°F10.8°C 50.6°F10.3°C 97% 5.8 mph WSW9.3 kmh WSW 9.2 mph14.8 kmh 30.23 in1023.7 mb - 0.00 in0.0 mm 0.00 in0.0 mm
05:30 AM 51.6°F10.9°C 50.8°F10.4°C 97% 5.8 mph SW9.3 kmh SW 8.1 mph13.0 kmh 30.23 in1023.7 mb - 0.00 in0.0 mm 0.00 in0.0 mm
05:40 AM 51.6°F10.9°C 50.8°F10.4°C 97% 6.9 mph SW11.1 kmh SW 12.7 mph20.4 kmh 30.23 in1023.7 mb - 0.00 in0.0 mm 0.00 in0.0 mm
05:50 AM 51.7°F10.9°C 50.9°F10.5°C 97% 6.9 mph WSW11.1 kmh WSW 11.5 mph18.5 kmh 30.23 in1023.7 mb - 0.00 in0.0 mm 0.00 in0.0 mm
06:00 AM 51.6°F10.9°C 50.8°F10.4°C 97% 8.1 mph W13.0 kmh W 13.8 mph22.2 kmh 30.22 in1023.4 mb - 0.00 in0.0 mm 0.00 in0.0 mm
06:10 AM 51.6°F10.9°C 50.8°F10.4°C 97% 9.2 mph WSW14.8 kmh WSW 16.1 mph25.9 kmh 30.21 in1023.0 mb - 0.00 in0.0 mm 0.00 in0.0 mm
06:20 AM 51.6°F10.9°C 50.8°F10.4°C 97% 9.2 mph W14.8 kmh W 16.1 mph25.9 kmh 30.21 in1023.0 mb - 0.00 in0.0 mm 0.00 in0.0 mm
06:30 AM 51.6°F10.9°C 50.8°F10.4°C 97% 9.2 mph WSW14.8 kmh WSW 13.8 mph22.2 kmh 30.20 in1022.7 mb - 0.00 in0.0 mm 0.00 in0.0 mm
06:40 AM 51.6°F10.9°C 50.8°F10.4°C 97% 6.9 mph WSW11.1 kmh WSW 13.8 mph22.2 kmh 30.20 in1022.7 mb - 0.00 in0.0 mm 0.00 in0.0 mm
06:50 AM 51.6°F10.9°C 50.8°F10.4°C 97% 10.4 mph WSW16.7 kmh WSW 16.1 mph25.9 kmh 30.19 in1022.4 mb - 0.00 in0.0 mm 0.00 in0.0 mm
07:00 AM 51.6°F10.9°C 50.7°F10.4°C 97% 9.2 mph SW14.8 kmh SW 21.9 mph35.2 kmh 30.19 in1022.4 mb - 0.00 in0.0 mm 0.00 in0.0 mm
07:10 AM 51.4°F10.8°C 50.6°F10.3°C 97% 11.5 mph W18.5 kmh W 19.6 mph31.5 kmh 30.19 in1022.4 mb - 0.00 in0.0 mm 0.00 in0.0 mm
07:20 AM 51.3°F10.7°C 50.5°F10.3°C 97% 9.2 mph WSW14.8 kmh WSW 16.1 mph25.9 kmh 30.19 in1022.4 mb - 0.00 in0.0 mm 0.00 in0.0 mm
07:30 AM 51.3°F10.7°C 50.5°F10.3°C 97% 10.4 mph WSW16.7 kmh WSW 18.4 mph29.6 kmh 30.19 in1022.4 mb - 0.00 in0.0 mm 0.00 in0.0 mm
07:40 AM 51.4°F10.8°C 50.6°F10.3°C 97% 11.5 mph WNW18.5 kmh WNW 18.4 mph29.6 kmh 30.18 in1022.0 mb - 0.00 in0.0 mm 0.00 in0.0 mm
07:50 AM 51.4°F10.8°C 50.5°F10.3°C 97% 8.1 mph W13.0 kmh W 18.4 mph29.6 kmh 30.18 in1022.0 mb - 0.00 in0.0 mm 0.00 in0.0 mm
08:00 AM 51.4°F10.8°C 50.6°F10.3°C 97% 9.2 mph W14.8 kmh W 18.4 mph29.6 kmh 30.17 in1021.7 mb - 0.00 in0.0 mm 0.00 in0.0 mm
08:10 AM 51.3°F10.7°C 50.5°F10.3°C 97% 8.1 mph WSW13.0 kmh WSW 15.0 mph24.1 kmh 30.17 in1021.7 mb - 0.00 in0.0 mm 0.00 in0.0 mm
08:20 AM 51.3°F10.7°C 50.2°F10.1°C 96% 10.4 mph WSW16.7 kmh WSW 16.1 mph25.9 kmh 30.17 in1021.7 mb - 0.00 in0.0 mm 0.00 in0.0 mm
08:30 AM 51.2°F10.7°C 50.1°F10.1°C 96% 9.2 mph NW14.8 kmh NW 16.1 mph25.9 kmh 30.16 in1021.3 mb - 0.00 in0.0 mm 0.00 in0.0 mm
08:40 AM 51.1°F10.6°C 50.0°F10.0°C 96% 10.4 mph W16.7 kmh W 18.4 mph29.6 kmh 30.16 in1021.3 mb - 0.00 in0.0 mm 0.00 in0.0 mm
08:50 AM 51.1°F10.6°C 50.0°F10.0°C 96% 8.1 mph WSW13.0 kmh WSW 12.7 mph20.4 kmh 30.16 in1021.3 mb - 0.00 in0.0 mm 0.00 in0.0 mm
09:00 AM 51.0°F10.6°C 49.9°F9.9°C 96% 11.5 mph WNW18.5 kmh WNW 18.4 mph29.6 kmh 30.15 in1021.0 mb - 0.00 in0.0 mm 0.00 in0.0 mm
09:10 AM 51.0°F10.6°C 49.9°F9.9°C 96% 8.1 mph WSW13.0 kmh WSW 18.4 mph29.6 kmh 30.15 in1021.0 mb - 0.00 in0.0 mm 0.00 in0.0 mm
09:20 AM 51.0°F10.6°C 49.9°F9.9°C 96% 10.4 mph WNW16.7 kmh WNW 16.1 mph25.9 kmh 30.15 in1021.0 mb - 0.00 in0.0 mm 0.00 in0.0 mm
09:30 AM 51.1°F10.6°C 50.0°F10.0°C 96% 8.1 mph WNW13.0 kmh WNW 15.0 mph24.1 kmh 30.15 in1021.0 mb - 0.01 in0.3 mm 0.01 in0.3 mm
09:40 AM 51.1°F10.6°C 50.0°F10.0°C 96% 8.1 mph W13.0 kmh W 12.7 mph20.4 kmh 30.15 in1021.0 mb - 0.00 in0.0 mm 0.01 in0.3 mm
09:50 AM 51.2°F10.7°C 50.1°F10.1°C 96% 8.1 mph W13.0 kmh W 13.8 mph22.2 kmh 30.15 in1021.0 mb - 0.00 in0.0 mm 0.01 in0.3 mm
10:00 AM 51.1°F10.6°C 50.0°F10.0°C 96% 8.1 mph WSW13.0 kmh WSW 12.7 mph20.4 kmh 30.15 in1021.0 mb - 0.00 in0.0 mm 0.01 in0.3 mm
10:10 AM 51.1°F10.6°C 50.0°F10.0°C 96% 10.4 mph WSW16.7 kmh WSW 16.1 mph25.9 kmh 30.15 in1021.0 mb - 0.00 in0.0 mm 0.01 in0.3 mm
10:20 AM 51.0°F10.6°C 49.9°F9.9°C 96% 8.1 mph WSW13.0 kmh WSW 13.8 mph22.2 kmh 30.14 in1020.7 mb - 0.00 in0.0 mm 0.01 in0.3 mm
10:30 AM 51.0°F10.6°C 49.9°F9.9°C 96% 8.1 mph W13.0 kmh W 20.7 mph33.3 kmh 30.14 in1020.7 mb - 0.00 in0.0 mm 0.01 in0.3 mm
10:40 AM 50.9°F10.5°C 49.8°F9.9°C 96% 9.2 mph WSW14.8 kmh WSW 19.6 mph31.5 kmh 30.13 in1020.3 mb - 0.00 in0.0 mm 0.01 in0.3 mm
10:50 AM 50.9°F10.5°C 49.8°F9.9°C 96% 8.1 mph WSW13.0 kmh WSW 13.8 mph22.2 kmh 30.14 in1020.7 mb - 0.00 in0.0 mm 0.01 in0.3 mm
11:00 AM 51.0°F10.6°C 49.9°F9.9°C 96% 5.8 mph W9.3 kmh W 11.5 mph18.5 kmh 30.14 in1020.7 mb - 0.00 in0.0 mm 0.01 in0.3 mm
11:10 AM 51.2°F10.7°C 50.1°F10.1°C 96% 10.4 mph SW16.7 kmh SW 20.7 mph33.3 kmh 30.13 in1020.3 mb - 0.00 in0.0 mm 0.01 in0.3 mm
11:20 AM 51.3°F10.7°C 50.2°F10.1°C 96% 10.4 mph WSW16.7 kmh WSW 20.7 mph33.3 kmh 30.12 in1020.0 mb - 0.00 in0.0 mm 0.01 in0.3 mm
11:30 AM 51.5°F10.8°C 50.4°F10.2°C 96% 10.4 mph WSW16.7 kmh WSW 21.9 mph35.2 kmh 30.12 in1020.0 mb - 0.00 in0.0 mm 0.01 in0.3 mm
11:40 AM 51.5°F10.8°C 50.4°F10.2°C 96% 9.2 mph WNW14.8 kmh WNW 23.0 mph37.0 kmh 30.11 in1019.6 mb - 0.00 in0.0 mm 0.01 in0.3 mm
11:50 AM 51.5°F10.8°C 50.4°F10.2°C 96% 10.4 mph W16.7 kmh W 16.1 mph25.9 kmh 30.11 in1019.6 mb - 0.00 in0.0 mm 0.01 in0.3 mm
12:00 PM 51.5°F10.8°C 50.4°F10.2°C 96% 11.5 mph NW18.5 kmh NW 26.5 mph42.6 kmh 30.10 in1019.3 mb - 0.00 in0.0 mm 0.01 in0.3 mm
12:10 PM 51.5°F10.8°C 50.4°F10.2°C 96% 13.8 mph WNW22.2 kmh WNW 23.0 mph37.0 kmh 30.09 in1019.0 mb - 0.00 in0.0 mm 0.01 in0.3 mm
12:20 PM 51.5°F10.8°C 50.4°F10.2°C 96% 9.2 mph W14.8 kmh W 16.1 mph25.9 kmh 30.10 in1019.3 mb - 0.00 in0.0 mm 0.01 in0.3 mm
12:30 PM 51.6°F10.9°C 50.5°F10.3°C 96% 8.1 mph W13.0 kmh W 15.0 mph24.1 kmh 30.09 in1019.0 mb - 0.00 in0.0 mm 0.01 in0.3 mm
12:40 PM 51.6°F10.9°C 50.2°F10.1°C 95% 9.2 mph W14.8 kmh W 16.1 mph25.9 kmh 30.09 in1019.0 mb - 0.00 in0.0 mm 0.01 in0.3 mm
12:50 PM 51.7°F10.9°C 50.3°F10.2°C 95% 8.1 mph NW13.0 kmh NW 19.6 mph31.5 kmh 30.09 in1019.0 mb - 0.00 in0.0 mm 0.01 in0.3 mm
01:00 PM 51.7°F10.9°C 50.3°F10.2°C 95% 8.1 mph WSW13.0 kmh WSW 15.0 mph24.1 kmh 30.08 in1018.6 mb - 0.00 in0.0 mm 0.01 in0.3 mm
01:10 PM 51.7°F10.9°C 50.3°F10.2°C 95% 6.9 mph WSW11.1 kmh WSW 10.4 mph16.7 kmh 30.08 in1018.6 mb - 0.00 in0.0 mm 0.01 in0.3 mm
01:20 PM 51.8°F11.0°C 50.4°F10.2°C 95% 6.9 mph SW11.1 kmh SW 9.2 mph14.8 kmh 30.07 in1018.3 mb - 0.00 in0.0 mm 0.01 in0.3 mm
01:30 PM 51.8°F11.0°C 50.4°F10.2°C 95% 6.9 mph WSW11.1 kmh WSW 16.1 mph25.9 kmh 30.06 in1017.9 mb - 0.00 in0.0 mm 0.01 in0.3 mm
01:40 PM 51.8°F11.0°C 50.4°F10.2°C 95% 8.1 mph WSW13.0 kmh WSW 13.8 mph22.2 kmh 30.06 in1017.9 mb - 0.00 in0.0 mm 0.01 in0.3 mm
01:50 PM 51.8°F11.0°C 50.4°F10.2°C 95% 9.2 mph WSW14.8 kmh WSW 13.8 mph22.2 kmh 30.05 in1017.6 mb - 0.00 in0.0 mm 0.01 in0.3 mm
02:00 PM 51.8°F11.0°C 50.4°F10.2°C 95% 9.2 mph WNW14.8 kmh WNW 13.8 mph22.2 kmh 30.05 in1017.6 mb - 0.00 in0.0 mm 0.01 in0.3 mm
02:10 PM 51.8°F11.0°C 50.1°F10.1°C 94% 6.9 mph WSW11.1 kmh WSW 11.5 mph18.5 kmh 30.04 in1017.3 mb - 0.00 in0.0 mm 0.01 in0.3 mm
02:20 PM 51.8°F11.0°C 50.1°F10.1°C 94% 6.9 mph W11.1 kmh W 15.0 mph24.1 kmh 30.04 in1017.3 mb - 0.00 in0.0 mm 0.01 in0.3 mm
02:30 PM 51.7°F10.9°C 50.4°F10.2°C 95% 8.1 mph WSW13.0 kmh WSW 12.7 mph20.4 kmh 30.02 in1016.6 mb - 0.00 in0.0 mm 0.01 in0.3 mm
02:40 PM 51.8°F11.0°C 50.4°F10.2°C 95% 6.9 mph W11.1 kmh W 13.8 mph22.2 kmh 30.02 in1016.6 mb - 0.00 in0.0 mm 0.01 in0.3 mm
02:50 PM 51.8°F11.0°C 50.1°F10.1°C 94% 9.2 mph W14.8 kmh W 17.3 mph27.8 kmh 30.02 in1016.6 mb - 0.00 in0.0 mm 0.01 in0.3 mm
03:00 PM 51.8°F11.0°C 50.1°F10.1°C 94% 8.1 mph SW13.0 kmh SW 16.1 mph25.9 kmh 30.01 in1016.3 mb - 0.00 in0.0 mm 0.01 in0.3 mm
03:10 PM 51.8°F11.0°C 50.1°F10.1°C 94% 9.2 mph W14.8 kmh W 15.0 mph24.1 kmh 30.01 in1016.3 mb - 0.00 in0.0 mm 0.01 in0.3 mm
03:20 PM 51.8°F11.0°C 50.1°F10.1°C 94% 6.9 mph W11.1 kmh W 16.1 mph25.9 kmh 30.00 in1015.9 mb - 0.00 in0.0 mm 0.01 in0.3 mm
03:30 PM 51.8°F11.0°C 50.1°F10.1°C 94% 8.1 mph W13.0 kmh W 11.5 mph18.5 kmh 30.00 in1015.9 mb - 0.00 in0.0 mm 0.01 in0.3 mm
03:40 PM 51.8°F11.0°C 50.1°F10.1°C 94% 8.1 mph WSW13.0 kmh WSW 15.0 mph24.1 kmh 29.99 in1015.6 mb - 0.00 in0.0 mm 0.01 in0.3 mm
03:50 PM 51.7°F10.9°C 50.3°F10.2°C 95% 11.5 mph WSW18.5 kmh WSW 18.4 mph29.6 kmh 29.99 in1015.6 mb - 0.00 in0.0 mm 0.01 in0.3 mm
04:00 PM 51.6°F10.9°C 50.2°F10.1°C 95% 9.2 mph WNW14.8 kmh WNW 18.4 mph29.6 kmh 29.98 in1015.2 mb - 0.00 in0.0 mm 0.01 in0.3 mm
04:10 PM 51.5°F10.8°C 50.1°F10.1°C 95% 9.2 mph WSW14.8 kmh WSW 13.8 mph22.2 kmh 29.98 in1015.2 mb - 0.00 in0.0 mm 0.01 in0.3 mm
04:20 PM 51.5°F10.8°C 49.8°F9.9°C 94% 10.4 mph WSW16.7 kmh WSW 13.8 mph22.2 kmh 29.98 in1015.2 mb - 0.00 in0.0 mm 0.01 in0.3 mm
04:30 PM 51.6°F10.9°C 49.9°F9.9°C 94% 10.4 mph WSW16.7 kmh WSW 19.6 mph31.5 kmh 29.97 in1014.9 mb - 0.00 in0.0 mm 0.01 in0.3 mm
04:40 PM 51.6°F10.9°C 49.9°F9.9°C 94% 10.4 mph W16.7 kmh W 17.3 mph27.8 kmh 29.97 in1014.9 mb - 0.00 in0.0 mm 0.01 in0.3 mm
04:50 PM 51.6°F10.9°C 49.9°F9.9°C 94% 9.2 mph WSW14.8 kmh WSW 19.6 mph31.5 kmh 29.97 in1014.9 mb - 0.00 in0.0 mm 0.01 in0.3 mm
05:00 PM 51.6°F10.9°C 49.9°F9.9°C 94% 6.9 mph WSW11.1 kmh WSW 12.7 mph20.4 kmh 29.97 in1014.9 mb - 0.00 in0.0 mm 0.01 in0.3 mm
05:10 PM 51.6°F10.9°C 49.9°F9.9°C 94% 10.4 mph WSW16.7 kmh WSW 16.1 mph25.9 kmh 29.96 in1014.6 mb - 0.00 in0.0 mm 0.01 in0.3 mm
05:20 PM 51.6°F10.9°C 49.9°F9.9°C 94% 9.2 mph WNW14.8 kmh WNW 17.3 mph27.8 kmh 29.96 in1014.6 mb - 0.00 in0.0 mm 0.01 in0.3 mm
05:30 PM 51.6°F10.9°C 50.0°F10.0°C 94% 6.9 mph WSW11.1 kmh WSW 15.0 mph24.1 kmh 29.96 in1014.6 mb - 0.00 in0.0 mm 0.01 in0.3 mm
05:40 PM 51.7°F10.9°C 50.0°F10.0°C 94% 8.1 mph NNW13.0 kmh NNW 13.8 mph22.2 kmh 29.96 in1014.6 mb - 0.00 in0.0 mm 0.01 in0.3 mm
05:50 PM 51.8°F11.0°C 50.1°F10.1°C 94% 10.4 mph WSW16.7 kmh WSW 16.1 mph25.9 kmh 29.95 in1014.2 mb - 0.00 in0.0 mm 0.01 in0.3 mm
06:00 PM 52.0°F11.1°C 50.3°F10.2°C 94% 10.4 mph W16.7 kmh W 19.6 mph31.5 kmh 29.95 in1014.2 mb - 0.00 in0.0 mm 0.01 in0.3 mm
06:10 PM 52.0°F11.1°C 50.4°F10.2°C 94% 10.4 mph W16.7 kmh W 16.1 mph25.9 kmh 29.94 in1013.9 mb - 0.00 in0.0 mm 0.01 in0.3 mm
06:20 PM 52.0°F11.1°C 50.3°F10.2°C 94% 8.1 mph W13.0 kmh W 13.8 mph22.2 kmh 29.95 in1014.2 mb - 0.00 in0.0 mm 0.01 in0.3 mm
06:30 PM 52.0°F11.1°C 50.3°F10.2°C 94% 11.5 mph W18.5 kmh W 16.1 mph25.9 kmh 29.95 in1014.2 mb - 0.00 in0.0 mm 0.01 in0.3 mm
06:40 PM 52.0°F11.1°C 50.3°F10.2°C 94% 9.2 mph SW14.8 kmh SW 19.6 mph31.5 kmh 29.95 in1014.2 mb - 0.00 in0.0 mm 0.01 in0.3 mm
06:50 PM 51.9°F11.1°C 50.5°F10.3°C 95% 9.2 mph WSW14.8 kmh WSW 16.1 mph25.9 kmh 29.94 in1013.9 mb - 0.00 in0.0 mm 0.01 in0.3 mm
07:00 PM 51.8°F11.0°C 50.4°F10.2°C 95% 8.1 mph SW13.0 kmh SW 15.0 mph24.1 kmh 29.94 in1013.9 mb - 0.00 in0.0 mm 0.01 in0.3 mm
07:10 PM 51.8°F11.0°C 50.4°F10.2°C 95% 6.9 mph W11.1 kmh W 13.8 mph22.2 kmh 29.93 in1013.5 mb - 0.00 in0.0 mm 0.01 in0.3 mm
07:20 PM 51.7°F10.9°C 50.3°F10.2°C 95% 10.4 mph W16.7 kmh W 17.3 mph27.8 kmh 29.93 in1013.5 mb - 0.00 in0.0 mm 0.01 in0.3 mm
07:30 PM 51.7°F10.9°C 50.3°F10.2°C 95% 12.7 mph W20.4 kmh W 18.4 mph29.6 kmh 29.92 in1013.2 mb - 0.00 in0.0 mm 0.01 in0.3 mm
07:40 PM 51.8°F11.0°C 50.4°F10.2°C 95% 5.8 mph W9.3 kmh W 8.1 mph13.0 kmh 29.92 in1013.2 mb - 0.00 in0.0 mm 0.01 in0.3 mm
07:50 PM 51.7°F10.9°C 50.3°F10.2°C 95% 10.4 mph WSW16.7 kmh WSW 13.8 mph22.2 kmh 29.91 in1012.9 mb - 0.00 in0.0 mm 0.01 in0.3 mm
08:00 PM 51.7°F10.9°C 50.3°F10.2°C 95% 8.1 mph W13.0 kmh W 13.8 mph22.2 kmh 29.91 in1012.9 mb - 0.00 in0.0 mm 0.01 in0.3 mm
08:10 PM 51.6°F10.9°C 50.2°F10.1°C 95% 10.4 mph WSW16.7 kmh WSW 19.6 mph31.5 kmh 29.90 in1012.5 mb - 0.00 in0.0 mm 0.01 in0.3 mm
08:20 PM 51.7°F10.9°C 50.3°F10.2°C 95% 10.4 mph WSW16.7 kmh WSW 16.1 mph25.9 kmh 29.90 in1012.5 mb - 0.00 in0.0 mm 0.01 in0.3 mm
08:30 PM 51.7°F10.9°C 50.3°F10.2°C 95% 9.2 mph WSW14.8 kmh WSW 18.4 mph29.6 kmh 29.89 in1012.2 mb - 0.00 in0.0 mm 0.01 in0.3 mm
08:40 PM 51.7°F10.9°C 50.3°F10.2°C 95% 8.1 mph SW13.0 kmh SW 12.7 mph20.4 kmh 29.88 in1011.9 mb - 0.00 in0.0 mm 0.01 in0.3 mm
08:50 PM 51.8°F11.0°C 50.4°F10.2°C 95% 10.4 mph WSW16.7 kmh WSW 19.6 mph31.5 kmh 29.88 in1011.9 mb - 0.00 in0.0 mm 0.01 in0.3 mm
09:00 PM 51.9°F11.1°C 50.5°F10.3°C 95% 10.4 mph W16.7 kmh W 19.6 mph31.5 kmh 29.87 in1011.5 mb - 0.00 in0.0 mm 0.01 in0.3 mm
09:10 PM 51.9°F11.1°C 50.2°F10.1°C 94% 9.2 mph WSW14.8 kmh WSW 20.7 mph33.3 kmh 29.87 in1011.5 mb - 0.00 in0.0 mm 0.01 in0.3 mm
09:20 PM 51.9°F11.1°C 50.2°F10.1°C 94% 9.2 mph W14.8 kmh W 16.1 mph25.9 kmh 29.86 in1011.2 mb - 0.00 in0.0 mm 0.01 in0.3 mm
09:30 PM 52.0°F11.1°C 50.3°F10.2°C 94% 10.4 mph SW16.7 kmh SW 16.1 mph25.9 kmh 29.86 in1011.2 mb - 0.00 in0.0 mm 0.01 in0.3 mm
09:40 PM 52.0°F11.1°C 50.3°F10.2°C 94% 13.8 mph WSW22.2 kmh WSW 23.0 mph37.0 kmh 29.85 in1010.8 mb - 0.00 in0.0 mm 0.01 in0.3 mm
09:50 PM 52.1°F11.2°C 50.7°F10.4°C 95% 13.8 mph WSW22.2 kmh WSW 26.5 mph42.6 kmh 29.84 in1010.5 mb - 0.00 in0.0 mm 0.01 in0.3 mm
10:00 PM 52.1°F11.2°C 50.4°F10.2°C 94% 12.7 mph WSW20.4 kmh WSW 25.3 mph40.7 kmh 29.84 in1010.5 mb - 0.00 in0.0 mm 0.01 in0.3 mm
10:10 PM 52.1°F11.2°C 50.4°F10.2°C 94% 11.5 mph WNW18.5 kmh WNW 25.3 mph40.7 kmh 29.84 in1010.5 mb - 0.00 in0.0 mm 0.01 in0.3 mm
10:20 PM 52.1°F11.2°C 50.4°F10.2°C 94% 13.8 mph WNW22.2 kmh WNW 21.9 mph35.2 kmh 29.84 in1010.5 mb - 0.00 in0.0 mm 0.01 in0.3 mm
10:30 PM 52.1°F11.2°C 50.7°F10.4°C 95% 11.5 mph SW18.5 kmh SW 20.7 mph33.3 kmh 29.83 in1010.2 mb - 0.00 in0.0 mm 0.01 in0.3 mm
10:40 PM 52.1°F11.2°C 50.7°F10.4°C 95% 12.7 mph WSW20.4 kmh WSW 19.6 mph31.5 kmh 29.83 in1010.2 mb - 0.00 in0.0 mm 0.01 in0.3 mm
10:50 PM 52.1°F11.2°C 50.7°F10.4°C 95% 11.5 mph W18.5 kmh W 27.6 mph44.4 kmh 29.83 in1010.2 mb - 0.00 in0.0 mm 0.01 in0.3 mm
11:00 PM 52.1°F11.2°C 50.7°F10.4°C 95% 15.0 mph W24.1 kmh W 25.3 mph40.7 kmh 29.83 in1010.2 mb - 0.00 in0.0 mm 0.01 in0.3 mm
11:10 PM 52.2°F11.2°C 50.8°F10.4°C 95% 9.2 mph SW14.8 kmh SW 15.0 mph24.1 kmh 29.82 in1009.8 mb - 0.00 in0.0 mm 0.01 in0.3 mm
11:20 PM 52.1°F11.2°C 50.7°F10.4°C 95% 11.5 mph SE18.5 kmh SE 15.0 mph24.1 kmh 29.82 in1009.8 mb - 0.00 in0.0 mm 0.01 in0.3 mm
11:30 PM 52.1°F11.2°C 50.4°F10.2°C 94% 11.5 mph W18.5 kmh W 20.7 mph33.3 kmh 29.82 in1009.8 mb - 0.00 in0.0 mm 0.01 in0.3 mm
11:40 PM 52.2°F11.2°C 50.5°F10.3°C 94% 11.5 mph WSW18.5 kmh WSW 19.6 mph31.5 kmh 29.81 in1009.5 mb - 0.00 in0.0 mm 0.01 in0.3 mm
11:50 PM 52.2°F11.2°C 50.5°F10.3°C 94% 13.8 mph SW22.2 kmh SW 25.3 mph40.7 kmh 29.81 in1009.5 mb - 0.00 in0.0 mm 0.01 in0.3 mm